Time;durP1;ratioP1;P1;durP2;ratioP2;P2;SDS_P1;SDS_P2;PMS_P1;PMS_P2;Temp;Humidity;BMP_temperature;BMP_pressure;BME280_temperature;BME280_humidity;BME280_pressure;Samples;Min_cycle;Max_cycle;Signal;HPM_P1;HPM_P2
2023/08/24 00:01:27;;;;;;;13.45;12.07;;;;;;;23.52;61.23;95007.72;5076873;28;20250;-66
2023/08/24 00:03:54;;;;;;;12.63;11.55;;;;;;;23.52;61.25;95009.75;5076863;28;20193;-66
2023/08/24 00:06:21;;;;;;;12.55;11.52;;;;;;;23.51;61.26;95023.03;5076221;28;20250;-66
2023/08/24 00:08:49;;;;;;;13.77;12.38;;;;;;;23.48;61.61;95017.47;5076941;28;20185;-66
2023/08/24 00:11:16;;;;;;;13.70;12.35;;;;;;;23.44;61.51;95017.56;5076511;28;20185;-67
2023/08/24 00:13:46;;;;;;;13.45;12.35;;;;;;;23.41;61.59;95012.03;5058654;28;20221;-67
2023/08/24 00:16:14;;;;;;;12.98;11.90;;;;;;;23.39;61.40;95003.25;5076698;28;20192;-67
2023/08/24 00:18:42;;;;;;;13.32;12.02;;;;;;;23.36;61.49;95001.31;5076755;28;20181;-67
2023/08/24 00:21:09;;;;;;;12.02;11.02;;;;;;;23.30;61.48;94995.38;5076621;28;20232;-67
2023/08/24 00:23:37;;;;;;;12.85;11.75;;;;;;;23.26;61.39;94995.47;5058867;28;20196;-67
2023/08/24 00:26:05;;;;;;;12.93;11.73;;;;;;;23.23;61.54;94999.16;5076439;28;20182;-67
2023/08/24 00:28:32;;;;;;;12.40;11.32;;;;;;;23.21;61.56;94992.41;5076390;28;20201;-67
2023/08/24 00:31:00;;;;;;;12.73;11.52;;;;;;;23.19;61.66;95001.25;5076082;28;20192;-67
2023/08/24 00:33:27;;;;;;;12.05;10.95;;;;;;;23.18;61.36;95005.31;5058710;28;20203;-67
2023/08/24 00:35:54;;;;;;;11.85;10.75;;;;;;;23.18;61.50;94998.91;5059309;28;20214;-67
2023/08/24 00:38:21;;;;;;;12.65;11.48;;;;;;;23.14;61.48;95003.81;5058945;28;20212;-66
2023/08/24 00:40:47;;;;;;;12.05;10.95;;;;;;;23.06;61.87;95003.97;5076023;28;20227;-66
2023/08/24 00:43:15;;;;;;;12.30;11.10;;;;;;;22.98;61.76;95010.16;5058595;28;20269;-66
2023/08/24 00:45:44;;;;;;;11.82;10.85;;;;;;;22.97;62.13;95008.59;5058515;28;20200;-65
2023/08/24 00:48:10;;;;;;;11.65;10.65;;;;;;;22.97;61.84;95017.81;5075643;28;20193;-65
2023/08/24 00:50:37;;;;;;;12.23;11.15;;;;;;;22.97;62.10;95014.22;5076105;28;20276;-66
2023/08/24 00:53:04;;;;;;;12.02;11.00;;;;;;;22.90;62.34;95009.50;5075638;28;20196;-66
2023/08/24 00:55:31;;;;;;;12.18;11.07;;;;;;;22.82;63.01;95000.44;5058318;28;20687;-66
2023/08/24 00:57:57;;;;;;;11.23;10.23;;;;;;;22.82;62.84;95008.88;5075597;28;20181;-67
2023/08/24 01:00:27;;;;;;;12.32;11.15;;;;;;;22.89;62.28;95010.75;5058371;28;20193;-68
2023/08/24 01:02:55;;;;;;;11.82;10.82;;;;;;;22.88;62.34;95020.41;5075465;28;20189;-68
2023/08/24 01:05:22;;;;;;;12.13;10.88;;;;;;;22.78;62.40;95013.78;5058166;28;20197;-66
2023/08/24 01:07:49;;;;;;;11.63;10.63;;;;;;;22.77;62.63;95015.00;5058056;28;20523;-66
2023/08/24 01:10:15;;;;;;;12.13;11.13;;;;;;;22.80;62.60;95002.91;5058422;28;20212;-66
2023/08/24 01:13:05;;;;;;;12.30;11.20;;;;;;;22.78;62.46;95010.97;5058233;28;20200;-67
2023/08/24 01:15:39;;;;;;;12.20;11.13;;;;;;;22.76;62.46;95004.97;5052417;28;20216;-66
2023/08/24 01:18:07;;;;;;;12.10;11.10;;;;;;;22.76;62.74;95001.38;5075787;28;20197;-66
2023/08/24 01:20:36;;;;;;;12.35;11.30;;;;;;;22.71;62.58;94994.25;5058119;28;20258;-66
2023/08/24 01:23:08;;;;;;;12.30;11.10;;;;;;;22.69;62.71;94995.91;5057757;28;20204;-66
2023/08/24 01:25:39;;;;;;;12.13;10.82;;;;;;;22.66;62.83;95000.38;5057710;28;20262;-66
2023/08/24 01:28:08;;;;;;;13.40;12.10;;;;;;;22.62;62.88;95001.66;5075327;28;20189;-66
2023/08/24 01:30:36;;;;;;;12.27;11.13;;;;;;;22.60;63.13;94993.69;5057791;28;20193;-66
2023/08/24 01:33:05;;;;;;;12.15;11.23;;;;;;;22.60;62.99;94996.50;5075269;28;20177;-66
2023/08/24 01:35:32;;;;;;;12.93;11.73;;;;;;;22.54;62.62;94990.56;5057689;28;20235;-66
2023/08/24 01:38:02;;;;;;;12.32;11.23;;;;;;;22.46;62.99;94994.75;5075562;28;20250;-66
2023/08/24 01:40:34;;;;;;;12.20;11.20;;;;;;;22.41;63.15;94997.28;5057582;28;20215;-66
2023/08/24 01:43:05;;;;;;;12.77;11.68;;;;;;;22.45;63.36;94996.00;5057677;28;20197;-65
2023/08/24 01:45:34;;;;;;;11.55;10.55;;;;;;;22.48;63.03;95006.38;5057468;28;20212;-65
2023/08/24 01:48:04;;;;;;;12.73;11.57;;;;;;;22.43;62.77;95009.66;5075189;28;20299;-65
2023/08/24 01:50:30;;;;;;;15.13;13.50;;;;;;;22.38;63.10;95009.38;5057842;28;20213;-66
2023/08/24 01:52:58;;;;;;;14.07;12.77;;;;;;;22.34;63.12;95013.06;5057571;28;20205;-66
2023/08/24 01:55:24;;;;;;;13.90;12.60;;;;;;;22.36;63.24;95021.03;5057009;28;20644;-66
2023/08/24 01:57:51;;;;;;;14.85;13.60;;;;;;;22.39;63.51;95016.59;5061920;28;20205;-67
2023/08/24 02:00:19;;;;;;;15.18;13.77;;;;;;;22.35;63.59;95011.81;5064117;28;20258;-67
2023/08/24 02:02:49;;;;;;;14.77;13.38;;;;;;;22.37;63.64;95014.22;5064474;28;20195;-67
2023/08/24 02:05:16;;;;;;;15.07;13.77;;;;;;;22.41;63.55;95019.78;5080877;28;20204;-67
2023/08/24 02:07:43;;;;;;;15.85;14.40;;;;;;;22.43;63.57;95017.31;5081283;28;20189;-67
2023/08/24 02:10:10;;;;;;;15.93;14.43;;;;;;;22.40;63.47;95009.72;5081609;28;20246;-68
2023/08/24 02:12:37;;;;;;;16.95;14.20;;;;;;;22.39;63.68;95013.78;5081576;28;20185;-68
2023/08/24 02:15:05;;;;;;;15.25;13.23;;;;;;;22.40;63.73;95020.97;5081503;28;20223;-68
2023/08/24 02:17:34;;;;;;;14.43;13.15;;;;;;;22.41;63.73;95019.78;5081584;28;20189;-68
2023/08/24 02:20:03;;;;;;;14.30;13.02;;;;;;;22.40;63.31;95018.16;5064588;28;20291;-68
2023/08/24 02:22:30;;;;;;;14.60;13.25;;;;;;;22.40;63.05;95018.94;5063887;28;20207;-68
2023/08/24 02:24:57;;;;;;;13.30;12.10;;;;;;;22.39;63.27;95020.19;5063817;28;20201;-68
2023/08/24 02:27:23;;;;;;;13.60;12.40;;;;;;;22.42;63.10;95024.16;5081361;28;20201;-68
2023/08/24 02:29:50;;;;;;;14.77;13.38;;;;;;;22.45;63.18;95020.50;5063887;28;20196;-68
2023/08/24 02:32:18;;;;;;;15.10;13.60;;;;;;;22.45;63.33;95021.28;5081089;28;20192;-68
2023/08/24 02:34:45;;;;;;;14.95;13.45;;;;;;;22.40;63.62;95020.97;5081028;28;20220;-68
2023/08/24 02:37:14;;;;;;;14.82;13.52;;;;;;;22.34;63.65;95021.47;5081419;28;20200;-68
2023/08/24 02:39:40;;;;;;;14.85;13.45;;;;;;;22.30;63.89;95012.34;5081376;28;20219;-68
2023/08/24 02:42:07;;;;;;;15.38;14.00;;;;;;;22.26;63.71;95006.00;5059993;28;20229;-68
2023/08/24 02:44:34;;;;;;;14.65;13.35;;;;;;;22.25;63.46;95000.78;5061321;28;20197;-68
2023/08/24 02:47:03;;;;;;;15.23;13.93;;;;;;;22.29;63.03;95005.09;5061367;28;20190;-68
2023/08/24 02:49:30;;;;;;;17.55;15.98;;;;;;;22.34;62.73;95001.81;5061321;28;20319;-68
2023/08/24 02:51:57;;;;;;;16.80;15.13;;;;;;;22.40;62.86;95001.31;5061457;28;20190;-68
2023/08/24 02:54:25;;;;;;;16.83;15.23;;;;;;;22.43;62.77;94998.44;5060854;28;20567;-68
2023/08/24 02:56:52;;;;;;;15.95;14.25;;;;;;;22.45;62.71;94996.00;5060296;28;20206;-68
2023/08/24 02:59:18;;;;;;;16.67;14.82;;;;;;;22.44;63.47;94990.78;5061121;28;20202;-68
2023/08/24 03:01:46;;;;;;;17.02;14.82;;;;;;;22.40;63.36;95001.31;5059911;28;20194;-66
2023/08/24 03:04:13;;;;;;;18.10;16.30;;;;;;;22.32;63.14;95001.44;5061168;28;20182;-66
2023/08/24 03:06:40;;;;;;;19.33;15.88;;;;;;;22.27;63.41;95007.56;5061258;28;20193;-66
2023/08/24 03:09:06;;;;;;;18.17;16.02;;;;;;;22.22;63.56;95005.28;5057798;28;20640;-66
2023/08/24 03:11:34;;;;;;;17.45;15.68;;;;;;;22.21;63.95;95008.50;5057587;28;20208;-66
2023/08/24 03:14:01;;;;;;;18.27;16.35;;;;;;;22.17;64.00;95010.56;5056884;28;20205;-66
2023/08/24 03:16:29;;;;;;;17.13;15.38;;;;;;;22.14;64.22;95014.22;5057810;28;20218;-66
2023/08/24 03:18:56;;;;;;;17.33;15.70;;;;;;;22.09;64.47;95012.69;5056762;28;20194;-66
2023/08/24 03:21:23;;;;;;;16.52;14.93;;;;;;;22.04;64.68;95019.59;5057757;28;20190;-67
2023/08/24 03:23:49;;;;;;;15.05;13.65;;;;;;;22.04;64.84;95028.03;5057672;28;20209;-67
2023/08/24 03:26:16;;;;;;;15.15;13.68;;;;;;;22.04;64.35;95039.28;5057070;28;20193;-67
2023/08/24 03:28:44;;;;;;;16.15;14.18;;;;;;;;;;5057676;28;20244;-66
2023/08/24 03:31:13;;;;;;;14.68;13.07;;;;;;;22.07;64.30;95034.78;5057542;28;20190;-66
2023/08/24 03:33:40;;;;;;;14.60;13.40;;;;;;;22.01;63.92;95042.94;5057523;28;20603;-66
2023/08/24 03:36:07;;;;;;;14.57;13.30;;;;;;;21.96;64.13;95049.03;5057082;28;20217;-66
2023/08/24 03:38:34;;;;;;;14.65;13.25;;;;;;;21.94;63.79;95050.69;5057413;28;20251;-66
2023/08/24 03:41:02;;;;;;;14.50;13.10;;;;;;;21.91;63.67;95049.53;5061531;28;20290;-66
2023/08/24 03:43:29;;;;;;;14.38;13.18;;;;;;;21.89;63.76;95046.31;5059610;28;20304;-66
2023/08/24 03:45:59;;;;;;;15.40;13.90;;;;;;;21.94;63.50;95062.72;5077016;28;20205;-66
2023/08/24 03:48:27;;;;;;;14.73;13.35;;;;;;;22.00;63.47;95060.19;5059546;28;20678;-66
2023/08/24 03:50:55;;;;;;;15.77;14.38;;;;;;;22.01;62.95;95064.59;5076393;28;20205;-66
2023/08/24 03:53:22;;;;;;;15.45;13.85;;;;;;;21.94;63.19;95061.91;5059471;28;20200;-67
2023/08/24 03:55:49;;;;;;;14.68;13.18;;;;;;;21.86;63.19;95059.22;5059386;28;20217;-66
2023/08/24 03:58:16;;;;;;;14.38;12.85;;;;;;;21.83;63.38;95062.09;5076886;28;20197;-66
2023/08/24 04:00:45;;;;;;;16.92;13.43;;;;;;;21.83;63.91;95057.28;5077138;28;20188;-68
2023/08/24 04:03:14;;;;;;;14.43;13.20;;;;;;;21.82;63.71;95055.69;5059526;28;20204;-66
2023/08/24 04:05:41;;;;;;;14.93;13.45;;;;;;;21.79;63.90;95061.38;5059285;28;20197;-66
2023/08/24 04:08:08;;;;;;;15.15;13.55;;;;;;;21.77;63.79;95058.19;5059252;28;20605;-66
2023/08/24 04:10:35;;;;;;;15.10;13.52;;;;;;;21.75;64.09;95052.19;5076570;28;20594;-68
2023/08/24 04:13:02;;;;;;;16.30;14.20;;;;;;;21.76;64.40;95065.00;5076803;28;20266;-66
2023/08/24 04:15:30;;;;;;;14.75;13.45;;;;;;;21.72;64.50;95059.47;5058914;28;20213;-66
2023/08/24 04:17:58;;;;;;;14.93;13.40;;;;;;;21.70;64.65;95055.47;5059315;28;20201;-66
2023/08/24 04:20:26;;;;;;;15.38;13.98;;;;;;;21.68;65.16;95055.09;5058716;28;20204;-66
2023/08/24 04:22:53;;;;;;;16.25;13.52;;;;;;;21.60;65.16;95057.22;5076271;28;20189;-66
2023/08/24 04:25:20;;;;;;;15.13;13.73;;;;;;;21.65;65.28;95061.59;5075776;28;20205;-66
2023/08/24 04:27:46;;;;;;;15.13;13.57;;;;;;;21.68;65.11;95057.91;5076367;28;20196;-66
2023/08/24 04:30:14;;;;;;;14.20;12.88;;;;;;;21.68;65.15;95057.91;5059020;28;20196;-66
2023/08/24 04:32:42;;;;;;;16.80;13.73;;;;;;;21.70;64.79;95061.88;5076398;28;20228;-66
2023/08/24 04:35:10;;;;;;;16.42;14.30;;;;;;;21.74;64.78;95068.22;5058593;28;20217;-66
2023/08/24 04:37:38;;;;;;;16.45;14.45;;;;;;;21.78;64.79;95065.38;5058692;28;20208;-66
2023/08/24 04:40:07;;;;;;;16.35;14.10;;;;;;;21.77;65.32;95073.00;5058666;28;20242;-66
2023/08/24 04:42:34;;;;;;;17.63;14.60;;;;;;;21.76;65.51;95067.81;5076131;28;20290;-66
2023/08/24 04:45:01;;;;;;;17.85;14.70;;;;;;;21.71;65.35;95069.06;5058505;28;20193;-66
2023/08/24 04:47:29;;;;;;;16.27;14.77;;;;;;;21.70;65.41;95070.31;5058475;28;20236;-66
2023/08/24 04:49:57;;;;;;;16.45;14.65;;;;;;;21.73;65.65;95061.03;5075990;28;20181;-66
2023/08/24 04:52:24;;;;;;;16.23;14.73;;;;;;;21.71;65.54;95057.06;5075899;28;20201;-66
2023/08/24 04:54:52;;;;;;;16.42;14.77;;;;;;;21.72;65.65;95047.44;5058538;28;20228;-66
2023/08/24 04:57:19;;;;;;;16.95;15.27;;;;;;;21.74;64.76;95059.03;5075678;28;20220;-66
2023/08/24 04:59:45;;;;;;;17.10;15.27;;;;;;;21.78;64.96;95057.72;5075853;28;20231;-66
2023/08/24 05:02:13;;;;;;;17.83;14.80;;;;;;;21.81;65.16;95068.13;5075496;28;20505;-66
2023/08/24 05:04:40;;;;;;;16.60;14.90;;;;;;;21.83;65.80;95062.88;5058375;28;20188;-66
2023/08/24 05:07:07;;;;;;;17.92;16.08;;;;;;;21.83;65.73;95068.50;5058011;28;20254;-66
2023/08/24 05:09:33;;;;;;;16.75;15.13;;;;;;;21.86;65.84;95073.25;5075711;28;20260;-66
2023/08/24 05:12:02;;;;;;;17.75;16.15;;;;;;;21.90;65.45;95076.00;5075716;28;20189;-66
2023/08/24 05:14:28;;;;;;;18.58;16.67;;;;;;;21.96;65.30;95071.47;5058262;28;20201;-66
2023/08/24 05:16:56;;;;;;;17.80;16.10;;;;;;;22.01;65.07;95076.63;5075512;28;20205;-66
2023/08/24 05:19:24;;;;;;;17.70;15.80;;;;;;;22.06;65.05;95070.50;5075253;28;20234;-66
2023/08/24 05:21:51;;;;;;;19.88;16.85;;;;;;;22.10;65.10;95068.44;5075240;28;20566;-66
2023/08/24 05:24:18;;;;;;;18.67;15.43;;;;;;;22.17;64.79;95081.59;5057563;28;20551;-66
2023/08/24 05:26:44;;;;;;;17.63;15.95;;;;;;;22.22;64.17;95081.13;5075533;28;20262;-66
2023/08/24 05:29:12;;;;;;;17.75;16.05;;;;;;;22.25;64.23;95080.22;5057940;28;20204;-66
2023/08/24 05:31:41;;;;;;;17.85;16.25;;;;;;;22.29;63.97;95078.16;5056971;28;20185;-66
2023/08/24 05:34:09;;;;;;;16.20;14.52;;;;;;;22.31;63.73;95086.16;5074552;28;20282;-66
2023/08/24 05:36:36;;;;;;;15.88;14.38;;;;;;;22.33;63.79;95092.13;5075345;28;20213;-66
2023/08/24 05:39:03;;;;;;;20.10;15.13;;;;;;;22.35;63.71;95098.91;5057934;28;20209;-66
2023/08/24 05:41:29;;;;;;;15.48;14.00;;;;;;;22.40;63.65;95097.63;5074788;28;20255;-66
2023/08/24 05:43:57;;;;;;;14.50;13.07;;;;;;;22.46;63.20;95103.56;5075026;28;20212;-66
2023/08/24 05:46:27;;;;;;;16.05;14.35;;;;;;;22.49;62.79;95099.91;5058090;28;20203;-66
2023/08/24 05:48:56;;;;;;;17.25;15.52;;;;;;;22.49;63.09;95099.91;5057546;28;20204;-66
2023/08/24 05:51:23;;;;;;;15.95;14.23;;;;;;;22.49;62.88;95105.53;5057504;28;20196;-66
2023/08/24 05:53:55;;;;;;;16.10;14.45;;;;;;;22.50;62.44;95118.34;5057416;28;20254;-66
2023/08/24 05:56:21;;;;;;;16.45;14.95;;;;;;;22.55;62.53;95115.06;5075358;28;20212;-66
2023/08/24 05:58:48;;;;;;;17.27;15.68;;;;;;;22.55;62.27;95106.63;5057591;28;20242;-66
2023/08/24 06:01:16;;;;;;;16.98;15.32;;;;;;;22.52;62.54;95110.28;5074868;28;20204;-66
2023/08/24 06:03:45;;;;;;;18.10;15.85;;;;;;;22.51;62.93;95109.50;5075014;28;20203;-66
2023/08/24 06:06:12;;;;;;;17.38;14.90;;;;;;;22.53;62.85;95107.03;5075009;28;20266;-66
2023/08/24 06:08:39;;;;;;;15.77;14.38;;;;;;;22.53;62.56;95095.00;5057231;28;20200;-66
2023/08/24 06:11:06;;;;;;;16.40;15.00;;;;;;;22.57;62.61;95095.72;5075038;28;20211;-66
2023/08/24 06:13:33;;;;;;;16.88;15.15;;;;;;;22.61;62.51;95101.28;5074917;28;20284;-66
2023/08/24 06:16:03;;;;;;;16.38;14.88;;;;;;;22.64;62.26;95106.84;5057271;28;20213;-66
2023/08/24 06:18:31;;;;;;;16.90;14.90;;;;;;;22.64;62.00;95101.22;5074869;28;20204;-66
2023/08/24 06:20:59;;;;;;;16.67;15.18;;;;;;;22.66;62.20;95100.75;5057478;28;20189;-66
2023/08/24 06:23:26;;;;;;;16.63;15.13;;;;;;;22.69;62.30;95103.50;5074489;28;20189;-66
2023/08/24 06:25:53;;;;;;;16.88;15.27;;;;;;;22.68;62.16;95101.94;5073991;28;20273;-66
2023/08/24 06:28:20;;;;;;;17.05;15.27;;;;;;;22.70;62.01;95102.31;5057447;28;20205;-66
2023/08/24 06:30:47;;;;;;;16.75;15.05;;;;;;;22.74;62.03;95102.25;5074434;28;20575;-66
2023/08/24 06:33:18;;;;;;;16.63;14.85;;;;;;;22.79;61.98;95104.53;5057259;28;20292;-66
2023/08/24 06:35:45;;;;;;;17.05;15.30;;;;;;;22.83;62.15;95102.44;5056674;28;20220;-66
2023/08/24 06:38:14;;;;;;;15.70;14.20;;;;;;;22.89;62.07;95108.38;5057726;28;20204;-66
2023/08/24 06:40:41;;;;;;;15.95;14.45;;;;;;;22.93;61.61;95106.31;5074485;28;20239;-66
2023/08/24 06:43:08;;;;;;;14.77;13.25;;;;;;;22.99;61.90;95101.78;5075407;28;20601;-66
2023/08/24 06:45:34;;;;;;;15.38;14.02;;;;;;;23.08;61.82;95101.97;5078305;28;20193;-66
2023/08/24 06:48:04;;;;;;;14.27;12.93;;;;;;;23.18;61.54;95105.81;5077848;28;20197;-66
2023/08/24 06:50:32;;;;;;;14.52;13.32;;;;;;;23.29;61.06;95100.72;5078318;28;20181;-66
2023/08/24 06:52:59;;;;;;;15.27;13.85;;;;;;;23.34;60.92;95105.06;5060846;28;20224;-66
2023/08/24 06:55:28;;;;;;;14.82;13.48;;;;;;;23.44;60.66;95107.63;5060673;28;20346;-66
2023/08/24 06:57:54;;;;;;;14.60;13.15;;;;;;;23.49;60.81;95101.50;5060492;28;20502;-66
2023/08/24 07:00:21;;;;;;;14.27;13.02;;;;;;;23.54;60.81;95103.00;5060718;28;20533;-66
2023/08/24 07:02:50;;;;;;;13.10;12.05;;;;;;;23.61;60.24;95093.59;5060651;28;20189;-66
2023/08/24 07:05:19;;;;;;;15.88;14.48;;;;;;;23.63;59.78;95093.94;5078111;28;20196;-66
2023/08/24 07:07:45;;;;;;;15.88;14.30;;;;;;;23.59;59.24;95094.03;5060288;28;20238;-66
2023/08/24 07:10:12;;;;;;;15.40;13.82;;;;;;;23.58;59.57;95088.84;5077599;28;20539;-70
2023/08/24 07:12:41;;;;;;;13.93;12.52;;;;;;;23.63;59.44;95088.31;5060183;28;20208;-67
2023/08/24 07:15:08;;;;;;;15.75;14.25;;;;;;;23.65;59.45;95083.84;5077857;28;20219;-67
2023/08/24 07:17:36;;;;;;;15.75;14.45;;;;;;;23.70;59.17;95076.91;5077459;28;20223;-66
2023/08/24 07:20:05;;;;;;;14.27;13.02;;;;;;;23.78;59.26;95072.69;5078189;28;20185;-66
2023/08/24 07:22:32;;;;;;;13.63;12.32;;;;;;;23.82;58.22;95073.44;5077925;28;20185;-66
2023/08/24 07:24:58;;;;;;;14.13;12.63;;;;;;;23.93;58.38;95078.78;5077727;28;20205;-66
2023/08/24 07:27:25;;;;;;;13.50;12.15;;;;;;;24.05;58.14;95074.47;5059723;28;20196;-66
2023/08/24 07:29:54;;;;;;;12.38;11.38;;;;;;;24.14;57.72;95077.44;5059708;28;20208;-66
2023/08/24 07:32:23;;;;;;;14.32;13.00;;;;;;;24.21;57.28;95072.44;5076228;28;20613;-66
2023/08/24 07:34:50;;;;;;;13.38;11.75;;;;;;;24.32;57.02;95074.97;5077132;28;20268;-66
2023/08/24 07:37:17;;;;;;;13.30;12.00;;;;;;;24.43;56.58;95072.69;5076535;28;20212;-66
2023/08/24 07:39:43;;;;;;;13.10;11.93;;;;;;;24.53;55.94;95072.88;5077028;28;20186;-66
2023/08/24 07:42:10;;;;;;;13.45;12.18;;;;;;;24.66;55.64;95074.50;5056019;28;20248;-66
2023/08/24 07:44:37;;;;;;;12.70;11.52;;;;;;;24.79;54.89;95073.75;5057399;28;20186;-66
2023/08/24 07:47:06;;;;;;;12.77;11.68;;;;;;;24.89;54.19;95070.63;5056337;28;20200;-66
2023/08/24 07:49:34;;;;;;;13.60;12.30;;;;;;;24.98;53.64;95067.16;5056219;28;20212;-66
2023/08/24 07:52:01;;;;;;;13.27;12.18;;;;;;;25.08;53.22;95068.09;5057273;28;20197;-66
2023/08/24 07:54:28;;;;;;;12.93;11.63;;;;;;;25.16;52.94;95070.31;5055995;28;20212;-66
2023/08/24 07:56:54;;;;;;;12.55;11.45;;;;;;;25.23;52.63;95071.31;5055974;28;20217;-66
2023/08/24 07:59:21;;;;;;;13.18;11.98;;;;;;;25.42;52.32;95071.13;5056689;28;20531;-66
2023/08/24 08:01:51;;;;;;;13.82;12.48;;;;;;;25.45;52.76;95067.41;5055861;28;20208;-66
2023/08/24 08:04:21;;;;;;;13.45;12.20;;;;;;;25.47;52.80;95072.59;5057292;28;20182;-67
2023/08/24 08:06:48;;;;;;;12.52;11.52;;;;;;;25.52;52.95;95069.19;5056505;28;20213;-66
2023/08/24 08:09:14;;;;;;;12.93;11.88;;;;;;;25.68;52.97;95077.59;5055512;28;20209;-66
2023/08/24 08:11:41;;;;;;;13.45;12.20;;;;;;;25.81;52.90;95071.16;5056644;28;20276;-66
2023/08/24 08:14:08;;;;;;;12.93;11.73;;;;;;;25.86;52.23;95064.97;5056210;28;20206;-66
2023/08/24 08:16:36;;;;;;;14.07;12.85;;;;;;;25.89;52.77;95066.84;5055606;28;20218;-66
2023/08/24 08:19:04;;;;;;;13.50;12.15;;;;;;;25.88;52.86;95060.41;5055571;28;20259;-66
2023/08/24 08:21:32;;;;;;;14.13;12.77;;;;;;;26.00;52.10;95064.50;5055314;28;20205;-66
2023/08/24 08:23:59;;;;;;;14.23;12.85;;;;;;;26.11;51.81;95064.16;5055558;28;20232;-66
2023/08/24 08:26:25;;;;;;;13.60;12.35;;;;;;;26.19;51.07;95064.69;5055732;28;20197;-66
2023/08/24 08:28:52;;;;;;;13.07;11.90;;;;;;;26.18;51.36;95063.88;5055166;28;20235;-66
2023/08/24 08:31:19;;;;;;;13.23;12.13;;;;;;;26.21;51.30;95062.97;5056359;28;20485;-66
2023/08/24 08:33:47;;;;;;;13.70;12.35;;;;;;;26.37;50.33;95060.00;5056237;28;20197;-66
2023/08/24 08:36:14;;;;;;;12.73;11.63;;;;;;;26.53;49.43;95050.59;5055424;28;20228;-66
2023/08/24 08:38:42;;;;;;;13.02;11.68;;;;;;;26.74;48.82;95054.72;5055011;28;20204;-66
2023/08/24 08:41:10;;;;;;;13.52;12.43;;;;;;;26.96;48.14;95051.88;5061178;28;20236;-66
2023/08/24 08:43:39;;;;;;;13.38;12.32;;;;;;;27.13;47.22;95043.25;5075684;28;20192;-66
2023/08/24 08:46:06;;;;;;;13.30;12.10;;;;;;;27.34;47.10;95043.22;5059158;28;20204;-66
2023/08/24 08:48:35;;;;;;;14.50;13.15;;;;;;;27.62;46.35;95036.88;5058937;28;20211;-66
2023/08/24 08:51:02;;;;;;;15.95;14.45;;;;;;;27.64;46.49;95034.38;5058437;28;20201;-66
2023/08/24 08:53:29;;;;;;;16.75;15.05;;;;;;;27.72;47.57;95032.84;5075865;28;20201;-66
2023/08/24 08:56:03;;;;;;;15.90;14.40;;;;;;;27.70;46.96;95038.94;5059072;28;20204;-66
2023/08/24 08:58:30;;;;;;;16.52;15.02;;;;;;;27.87;45.11;95027.41;5075895;28;20196;-66
2023/08/24 09:00:59;;;;;;;15.82;14.25;;;;;;;27.93;45.74;95023.50;5075873;28;20223;-66
2023/08/24 09:03:29;;;;;;;14.45;13.02;;;;;;;28.07;46.42;95025.75;5075734;28;20185;-66
2023/08/24 09:05:57;;;;;;;14.00;12.70;;;;;;;28.24;46.11;95019.78;5075473;28;20257;-66
2023/08/24 09:08:25;;;;;;;13.93;12.63;;;;;;;28.13;46.36;95016.59;5074805;28;20563;-66
2023/08/24 09:10:51;;;;;;;13.27;12.18;;;;;;;28.14;45.65;95007.63;5075672;28;20181;-66
2023/08/24 09:13:19;;;;;;;14.23;13.00;;;;;;;28.07;45.98;95008.72;5075269;28;20536;-66
2023/08/24 09:15:46;;;;;;;15.43;13.82;;;;;;;28.17;47.20;95003.84;5058007;28;20212;-66
2023/08/24 09:18:14;;;;;;;14.70;13.43;;;;;;;28.34;46.01;95001.53;5075405;28;20201;-66
2023/08/24 09:20:41;;;;;;;14.63;13.50;;;;;;;28.29;47.14;94993.66;5075204;28;20689;-66
2023/08/24 09:23:18;;;;;;;14.32;13.20;;;;;;;28.33;46.32;94991.44;5058152;28;20200;-66
2023/08/24 09:25:46;;;;;;;14.40;13.18;;;;;;;28.42;45.86;94994.31;5075717;28;20258;-66
2023/08/24 09:28:13;;;;;;;14.77;13.35;;;;;;;28.50;45.53;94983.44;5075047;28;20251;-66
2023/08/24 09:30:41;;;;;;;15.07;13.70;;;;;;;28.48;45.25;94983.13;5075104;28;20212;-66
2023/08/24 09:33:11;;;;;;;15.80;14.20;;;;;;;28.46;44.80;94977.91;5057520;28;20196;-66
2023/08/24 09:35:38;;;;;;;14.88;13.38;;;;;;;28.63;44.41;94978.38;5075291;28;20586;-66
2023/08/24 09:38:19;;;;;;;15.00;13.80;;;;;;;28.83;44.55;94977.09;5075237;28;20270;-66
2023/08/24 09:40:48;;;;;;;15.70;14.35;;;;;;;28.96;43.86;94974.88;5074304;28;20257;-66
2023/08/24 09:43:15;;;;;;;15.45;14.05;;;;;;;29.39;41.61;94970.06;5075246;28;20220;-66
2023/08/24 09:45:51;;;;;;;14.82;13.63;;;;;;;29.61;41.39;94972.69;5057570;28;20197;-66
2023/08/24 09:48:18;;;;;;;16.20;14.70;;;;;;;29.74;41.14;94971.22;5057188;28;20200;-66
2023/08/24 09:50:45;;;;;;;15.93;14.48;;;;;;;29.78;41.32;94964.53;5075147;28;20204;-66
2023/08/24 09:53:17;;;;;;;15.70;14.20;;;;;;;29.81;40.53;94955.06;5075177;28;20204;-66
2023/08/24 09:55:50;;;;;;;15.00;13.70;;;;;;;29.74;41.35;94953.38;5075043;28;20201;-66
2023/08/24 09:58:17;;;;;;;15.30;14.00;;;;;;;29.72;39.98;94956.69;5075002;28;20270;-66
2023/08/24 10:00:47;;;;;;;14.75;13.45;;;;;;;29.81;40.69;94950.16;5074757;28;20567;-66
2023/08/24 10:03:18;;;;;;;14.57;13.27;;;;;;;29.68;41.36;94953.25;5057591;28;20233;-66
2023/08/24 10:05:45;;;;;;;14.55;13.25;;;;;;;29.82;40.04;94948.13;5075079;28;20185;-66
2023/08/24 10:08:13;;;;;;;15.30;14.00;;;;;;;29.81;40.62;94947.31;5074995;28;20197;-66
2023/08/24 10:10:43;;;;;;;14.93;13.63;;;;;;;29.78;40.90;94947.50;5075040;28;20189;-66
2023/08/24 10:13:15;;;;;;;14.88;13.55;;;;;;;29.77;40.12;94943.09;5074956;28;20235;-66
2023/08/24 10:15:46;;;;;;;14.15;12.90;;;;;;;29.72;39.86;94942.47;5074825;28;20201;-66
2023/08/24 10:18:16;;;;;;;12.70;11.50;;;;;;;29.86;39.77;94934.50;5075506;28;20229;-66
2023/08/24 10:20:43;;;;;;;13.57;12.38;;;;;;;29.90;40.21;94932.28;5078577;28;20196;-66
2023/08/24 10:23:11;;;;;;;13.93;12.65;;;;;;;30.15;37.67;94931.00;5078602;28;20204;-66
2023/08/24 10:25:38;;;;;;;12.13;11.00;;;;;;;30.19;37.56;94931.63;5078896;28;20293;-66
2023/08/24 10:28:05;;;;;;;13.30;12.13;;;;;;;30.34;36.97;94937.38;5061538;28;20197;-66
2023/08/24 10:30:32;;;;;;;11.60;10.70;;;;;;;30.61;36.70;94931.47;5078369;28;20200;-66
2023/08/24 10:32:59;;;;;;;12.07;11.07;;;;;;;30.89;36.19;94922.66;5078417;28;20662;-66
2023/08/24 10:35:28;;;;;;;12.38;11.27;;;;;;;30.74;37.66;94910.47;5061128;28;20201;-66
2023/08/24 10:37:59;;;;;;;12.68;11.43;;;;;;;30.34;37.69;94917.47;5078528;28;20209;-66
2023/08/24 10:40:32;;;;;;;13.30;12.20;;;;;;;30.12;38.32;94915.69;5061404;28;20254;-66
2023/08/24 10:43:04;;;;;;;12.63;11.57;;;;;;;29.97;38.64;94924.16;5078516;28;20189;-66
2023/08/24 10:45:54;;;;;;;12.80;11.60;;;;;;;29.74;38.51;94922.91;5060861;28;20600;-66
2023/08/24 10:48:23;;;;;;;11.90;10.93;;;;;;;29.48;38.89;94924.56;5077388;28;20219;-66
2023/08/24 10:51:22;;;;;;;12.32;11.23;;;;;;;29.19;39.15;94920.25;5078271;28;20200;-66
2023/08/24 10:53:53;;;;;;;11.82;10.82;;;;;;;28.91;39.92;94930.91;5060670;28;20196;-66
2023/08/24 10:56:21;;;;;;;11.90;10.75;;;;;;;28.59;40.44;94926.69;5077265;28;20189;-66
2023/08/24 10:58:48;;;;;;;12.32;11.20;;;;;;;28.36;42.07;94928.09;5060340;28;20649;-66
2023/08/24 11:01:17;;;;;;;11.77;10.68;;;;;;;28.19;42.43;94919.13;5060576;28;20204;-66
2023/08/24 11:03:49;;;;;;;12.07;10.95;;;;;;;28.11;43.58;94920.69;5078095;28;20283;-66
2023/08/24 11:06:22;;;;;;;13.35;12.10;;;;;;;28.05;44.06;94914.84;5078093;28;20196;-66
2023/08/24 11:08:50;;;;;;;13.90;12.45;;;;;;;27.95;44.55;94916.09;5077961;28;20185;-66
2023/08/24 11:11:20;;;;;;;13.13;11.82;;;;;;;27.90;44.86;94922.41;5060461;28;20204;-66
2023/08/24 11:14:19;;;;;;;15.50;11.63;;;;;;;27.83;44.22;94912.16;5077900;28;20186;-66
2023/08/24 11:16:47;;;;;;;11.55;10.55;;;;;;;27.79;44.00;94919.25;5076977;28;20326;-66
2023/08/24 11:19:15;;;;;;;11.48;10.32;;;;;;;27.76;43.48;94923.00;5077879;28;20219;-66
2023/08/24 11:21:44;;;;;;;10.43;9.70;;;;;;;27.72;42.92;94925.97;5060167;28;20189;-66